Terminal Aerodrome Forecast
Issued by NWS Sioux Falls, SD

Home | Current Version | Previous Version | Text Only | Print | Product List | Glossary Off
Versions: 1 2 3 4 5 6 7 8 9 10 11 12 13 14 15 16 17 18

000
FTUS43 KFSD 211000 AAA
TAFFSD
TAF AMD
KFSD 211005Z 2110/2206 14010KT P6SM SCT050 SCT110 BKN150
     FM211030 02010KT P6SM BKN015
     FM211130 11008KT P6SM BKN015
     FM211600 17006KT P6SM SCT015
     FM212000 20008KT P6SM SCT035
     FM220100 12006KT P6SM SCT035 BKN100=

USA.gov is the U.S. government's official web portal to all federal, state and local government web resources and services.